sensor_id;sensor_type;location;lat;lon;timestamp;P1;durP1;ratioP1;P2;durP2;ratioP2
67902;SDS011;54708;43.612;1.568;2024-02-23T00:01:30;15.40;;;4.28;;
67902;SDS011;54708;43.612;1.568;2024-02-23T00:03:55;11.77;;;3.25;;
67902;SDS011;54708;43.612;1.568;2024-02-23T00:06:20;17.45;;;3.60;;
67902;SDS011;54708;43.612;1.568;2024-02-23T00:08:48;8.30;;;2.85;;
67902;SDS011;54708;43.612;1.568;2024-02-23T00:11:13;8.52;;;2.72;;
67902;SDS011;54708;43.612;1.568;2024-02-23T00:13:38;15.13;;;3.97;;
67902;SDS011;54708;43.612;1.568;2024-02-23T00:16:04;14.65;;;3.08;;
67902;SDS011;54708;43.612;1.568;2024-02-23T00:18:29;7.00;;;2.58;;
67902;SDS011;54708;43.612;1.568;2024-02-23T00:20:55;14.63;;;4.28;;
67902;SDS011;54708;43.612;1.568;2024-02-23T00:23:21;11.52;;;3.30;;
67902;SDS011;54708;43.612;1.568;2024-02-23T00:25:46;13.38;;;4.15;;
67902;SDS011;54708;43.612;1.568;2024-02-23T00:28:12;14.65;;;3.80;;
67902;SDS011;54708;43.612;1.568;2024-02-23T00:30:37;10.18;;;3.35;;
67902;SDS011;54708;43.612;1.568;2024-02-23T00:33:03;7.22;;;2.97;;
67902;SDS011;54708;43.612;1.568;2024-02-23T00:35:28;9.05;;;3.20;;
67902;SDS011;54708;43.612;1.568;2024-02-23T00:37:53;13.80;;;4.30;;
67902;SDS011;54708;43.612;1.568;2024-02-23T00:40:19;6.72;;;3.08;;
67902;SDS011;54708;43.612;1.568;2024-02-23T00:42:44;12.30;;;2.92;;
67902;SDS011;54708;43.612;1.568;2024-02-23T00:45:09;14.13;;;3.33;;
67902;SDS011;54708;43.612;1.568;2024-02-23T00:47:35;11.13;;;3.97;;
67902;SDS011;54708;43.612;1.568;2024-02-23T00:50:01;17.75;;;3.70;;
67902;SDS011;54708;43.612;1.568;2024-02-23T00:52:27;7.93;;;2.97;;
67902;SDS011;54708;43.612;1.568;2024-02-23T00:54:52;13.65;;;3.53;;
67902;SDS011;54708;43.612;1.568;2024-02-23T00:57:17;6.40;;;2.78;;
67902;SDS011;54708;43.612;1.568;2024-02-23T00:59:46;14.60;;;3.25;;
67902;SDS011;54708;43.612;1.568;2024-02-23T01:02:12;11.05;;;3.05;;
67902;SDS011;54708;43.612;1.568;2024-02-23T01:04:37;19.38;;;4.18;;
67902;SDS011;54708;43.612;1.568;2024-02-23T01:07:02;14.15;;;3.38;;
67902;SDS011;54708;43.612;1.568;2024-02-23T01:09:28;9.75;;;3.13;;
67902;SDS011;54708;43.612;1.568;2024-02-23T01:11:53;13.73;;;3.65;;
67902;SDS011;54708;43.612;1.568;2024-02-23T01:14:19;20.15;;;3.88;;
67902;SDS011;54708;43.612;1.568;2024-02-23T01:16:44;10.68;;;3.03;;
67902;SDS011;54708;43.612;1.568;2024-02-23T01:19:09;21.70;;;3.63;;
67902;SDS011;54708;43.612;1.568;2024-02-23T01:21:35;10.30;;;4.25;;
67902;SDS011;54708;43.612;1.568;2024-02-23T01:24:00;11.75;;;2.72;;
67902;SDS011;54708;43.612;1.568;2024-02-23T01:26:26;10.27;;;3.00;;
67902;SDS011;54708;43.612;1.568;2024-02-23T01:28:52;18.77;;;3.45;;
67902;SDS011;54708;43.612;1.568;2024-02-23T01:31:18;20.70;;;4.32;;
67902;SDS011;54708;43.612;1.568;2024-02-23T01:33:43;18.17;;;3.67;;
67902;SDS011;54708;43.612;1.568;2024-02-23T01:36:09;11.07;;;3.80;;
67902;SDS011;54708;43.612;1.568;2024-02-23T01:38:34;12.60;;;3.58;;
67902;SDS011;54708;43.612;1.568;2024-02-23T01:41:00;12.18;;;3.92;;
67902;SDS011;54708;43.612;1.568;2024-02-23T01:43:25;9.25;;;3.13;;
67902;SDS011;54708;43.612;1.568;2024-02-23T01:45:51;12.90;;;3.65;;
67902;SDS011;54708;43.612;1.568;2024-02-23T01:48:17;14.70;;;3.42;;
67902;SDS011;54708;43.612;1.568;2024-02-23T01:50:43;9.88;;;3.05;;
67902;SDS011;54708;43.612;1.568;2024-02-23T01:53:08;17.50;;;3.85;;
67902;SDS011;54708;43.612;1.568;2024-02-23T01:55:36;19.45;;;5.43;;
67902;SDS011;54708;43.612;1.568;2024-02-23T01:58:01;18.00;;;3.63;;
67902;SDS011;54708;43.612;1.568;2024-02-23T02:00:27;9.13;;;2.78;;
67902;SDS011;54708;43.612;1.568;2024-02-23T02:02:53;10.90;;;3.28;;
67902;SDS011;54708;43.612;1.568;2024-02-23T02:05:19;9.35;;;2.85;;
67902;SDS011;54708;43.612;1.568;2024-02-23T02:07:44;14.70;;;3.40;;
67902;SDS011;54708;43.612;1.568;2024-02-23T02:10:10;16.20;;;4.25;;
67902;SDS011;54708;43.612;1.568;2024-02-23T02:12:36;9.85;;;3.03;;
67902;SDS011;54708;43.612;1.568;2024-02-23T02:15:02;9.57;;;2.70;;
67902;SDS011;54708;43.612;1.568;2024-02-23T02:17:28;12.70;;;3.25;;
67902;SDS011;54708;43.612;1.568;2024-02-23T02:19:54;11.75;;;3.90;;
67902;SDS011;54708;43.612;1.568;2024-02-23T02:22:19;15.55;;;3.22;;
67902;SDS011;54708;43.612;1.568;2024-02-23T02:24:45;17.70;;;3.53;;
67902;SDS011;54708;43.612;1.568;2024-02-23T02:27:11;8.63;;;3.05;;
67902;SDS011;54708;43.612;1.568;2024-02-23T02:29:37;10.45;;;3.20;;
67902;SDS011;54708;43.612;1.568;2024-02-23T02:32:02;10.38;;;2.80;;
67902;SDS011;54708;43.612;1.568;2024-02-23T02:34:28;13.75;;;3.88;;
67902;SDS011;54708;43.612;1.568;2024-02-23T02:36:54;18.73;;;3.28;;
67902;SDS011;54708;43.612;1.568;2024-02-23T02:39:20;9.35;;;2.65;;
67902;SDS011;54708;43.612;1.568;2024-02-23T02:41:45;15.02;;;3.97;;
67902;SDS011;54708;43.612;1.568;2024-02-23T02:44:12;15.32;;;3.95;;
67902;SDS011;54708;43.612;1.568;2024-02-23T02:46:39;17.35;;;4.80;;
67902;SDS011;54708;43.612;1.568;2024-02-23T02:49:04;11.80;;;3.30;;
67902;SDS011;54708;43.612;1.568;2024-02-23T02:51:29;11.82;;;3.28;;
67902;SDS011;54708;43.612;1.568;2024-02-23T02:53:55;12.07;;;3.47;;
67902;SDS011;54708;43.612;1.568;2024-02-23T02:56:20;12.27;;;3.53;;
67902;SDS011;54708;43.612;1.568;2024-02-23T02:58:45;23.50;;;3.42;;
67902;SDS011;54708;43.612;1.568;2024-02-23T03:01:11;9.48;;;3.10;;
67902;SDS011;54708;43.612;1.568;2024-02-23T03:03:36;12.65;;;3.60;;
67902;SDS011;54708;43.612;1.568;2024-02-23T03:06:02;12.73;;;3.10;;
67902;SDS011;54708;43.612;1.568;2024-02-23T03:08:27;16.40;;;4.03;;
67902;SDS011;54708;43.612;1.568;2024-02-23T03:10:53;10.07;;;2.55;;
67902;SDS011;54708;43.612;1.568;2024-02-23T03:13:18;8.63;;;2.97;;
67902;SDS011;54708;43.612;1.568;2024-02-23T03:15:43;8.65;;;2.55;;
67902;SDS011;54708;43.612;1.568;2024-02-23T03:18:09;8.35;;;2.67;;
67902;SDS011;54708;43.612;1.568;2024-02-23T03:20:35;18.23;;;3.92;;
67902;SDS011;54708;43.612;1.568;2024-02-23T03:23:00;17.15;;;4.60;;
67902;SDS011;54708;43.612;1.568;2024-02-23T03:25:28;20.13;;;4.72;;
67902;SDS011;54708;43.612;1.568;2024-02-23T03:27:54;15.40;;;3.10;;
67902;SDS011;54708;43.612;1.568;2024-02-23T03:30:19;8.07;;;3.30;;
67902;SDS011;54708;43.612;1.568;2024-02-23T03:32:44;8.10;;;2.70;;
67902;SDS011;54708;43.612;1.568;2024-02-23T03:35:12;15.90;;;2.85;;
67902;SDS011;54708;43.612;1.568;2024-02-23T03:37:37;11.10;;;2.15;;
67902;SDS011;54708;43.612;1.568;2024-02-23T03:40:03;12.73;;;2.70;;
67902;SDS011;54708;43.612;1.568;2024-02-23T03:42:30;10.13;;;3.00;;
67902;SDS011;54708;43.612;1.568;2024-02-23T03:44:55;12.98;;;2.75;;
67902;SDS011;54708;43.612;1.568;2024-02-23T03:47:20;10.30;;;2.65;;
67902;SDS011;54708;43.612;1.568;2024-02-23T03:49:46;12.80;;;2.70;;
67902;SDS011;54708;43.612;1.568;2024-02-23T03:52:11;8.10;;;2.65;;
67902;SDS011;54708;43.612;1.568;2024-02-23T03:54:37;11.82;;;2.63;;
67902;SDS011;54708;43.612;1.568;2024-02-23T03:57:02;17.45;;;3.05;;
67902;SDS011;54708;43.612;1.568;2024-02-23T03:59:28;11.77;;;2.47;;
67902;SDS011;54708;43.612;1.568;2024-02-23T04:01:53;14.10;;;2.92;;
67902;SDS011;54708;43.612;1.568;2024-02-23T04:04:19;8.50;;;2.58;;
67902;SDS011;54708;43.612;1.568;2024-02-23T04:06:45;6.25;;;2.42;;
67902;SDS011;54708;43.612;1.568;2024-02-23T04:09:10;5.63;;;2.28;;
67902;SDS011;54708;43.612;1.568;2024-02-23T04:11:36;6.32;;;2.47;;
67902;SDS011;54708;43.612;1.568;2024-02-23T04:14:01;12.70;;;1.90;;
67902;SDS011;54708;43.612;1.568;2024-02-23T04:16:27;11.23;;;3.15;;
67902;SDS011;54708;43.612;1.568;2024-02-23T04:18:53;5.88;;;1.92;;
67902;SDS011;54708;43.612;1.568;2024-02-23T04:21:18;5.43;;;1.58;;
67902;SDS011;54708;43.612;1.568;2024-02-23T04:23:44;7.05;;;1.60;;
67902;SDS011;54708;43.612;1.568;2024-02-23T04:26:09;5.40;;;2.10;;
67902;SDS011;54708;43.612;1.568;2024-02-23T04:28:37;9.18;;;2.22;;
67902;SDS011;54708;43.612;1.568;2024-02-23T04:31:03;6.10;;;1.85;;
67902;SDS011;54708;43.612;1.568;2024-02-23T04:33:28;10.30;;;1.90;;
67902;SDS011;54708;43.612;1.568;2024-02-23T04:35:54;6.05;;;2.15;;
67902;SDS011;54708;43.612;1.568;2024-02-23T04:38:19;9.63;;;2.97;;
67902;SDS011;54708;43.612;1.568;2024-02-23T04:40:44;8.90;;;1.90;;
67902;SDS011;54708;43.612;1.568;2024-02-23T04:43:10;11.30;;;2.63;;
67902;SDS011;54708;43.612;1.568;2024-02-23T04:45:35;12.10;;;3.05;;
67902;SDS011;54708;43.612;1.568;2024-02-23T04:48:01;10.57;;;2.25;;
67902;SDS011;54708;43.612;1.568;2024-02-23T04:50:27;4.53;;;2.00;;
67902;SDS011;54708;43.612;1.568;2024-02-23T04:52:52;2.38;;;1.60;;
67902;SDS011;54708;43.612;1.568;2024-02-23T04:55:18;5.28;;;1.80;;
67902;SDS011;54708;43.612;1.568;2024-02-23T04:57:43;4.85;;;1.60;;
67902;SDS011;54708;43.612;1.568;2024-02-23T05:00:09;4.32;;;1.88;;
67902;SDS011;54708;43.612;1.568;2024-02-23T05:02:35;6.20;;;2.47;;
67902;SDS011;54708;43.612;1.568;2024-02-23T05:05:03;4.15;;;2.10;;
67902;SDS011;54708;43.612;1.568;2024-02-23T05:07:32;5.90;;;2.00;;
67902;SDS011;54708;43.612;1.568;2024-02-23T05:09:58;3.72;;;1.25;;
67902;SDS011;54708;43.612;1.568;2024-02-23T05:12:23;6.22;;;1.85;;
67902;SDS011;54708;43.612;1.568;2024-02-23T05:14:49;4.70;;;2.08;;
67902;SDS011;54708;43.612;1.568;2024-02-23T05:17:14;6.00;;;2.28;;
67902;SDS011;54708;43.612;1.568;2024-02-23T05:19:39;4.68;;;1.33;;
67902;SDS011;54708;43.612;1.568;2024-02-23T05:22:05;3.00;;;1.25;;
67902;SDS011;54708;43.612;1.568;2024-02-23T05:24:30;8.23;;;1.75;;
67902;SDS011;54708;43.612;1.568;2024-02-23T05:26:55;2.65;;;1.38;;
67902;SDS011;54708;43.612;1.568;2024-02-23T05:29:22;3.40;;;1.27;;
67902;SDS011;54708;43.612;1.568;2024-02-23T05:31:49;5.20;;;1.02;;
67902;SDS011;54708;43.612;1.568;2024-02-23T05:34:15;6.40;;;1.83;;
67902;SDS011;54708;43.612;1.568;2024-02-23T05:36:42;5.40;;;1.27;;
67902;SDS011;54708;43.612;1.568;2024-02-23T05:39:08;4.05;;;1.17;;
67902;SDS011;54708;43.612;1.568;2024-02-23T05:41:34;6.32;;;1.50;;
67902;SDS011;54708;43.612;1.568;2024-02-23T05:44:01;5.07;;;1.23;;
67902;SDS011;54708;43.612;1.568;2024-02-23T05:46:29;1.52;;;1.15;;
67902;SDS011;54708;43.612;1.568;2024-02-23T05:48:54;8.07;;;1.75;;
67902;SDS011;54708;43.612;1.568;2024-02-23T05:51:19;3.00;;;1.05;;
67902;SDS011;54708;43.612;1.568;2024-02-23T05:53:45;6.18;;;1.33;;
67902;SDS011;54708;43.612;1.568;2024-02-23T05:56:10;3.22;;;1.40;;
67902;SDS011;54708;43.612;1.568;2024-02-23T05:58:35;2.67;;;0.98;;
67902;SDS011;54708;43.612;1.568;2024-02-23T06:01:01;5.53;;;1.50;;
67902;SDS011;54708;43.612;1.568;2024-02-23T06:03:27;4.07;;;1.38;;
67902;SDS011;54708;43.612;1.568;2024-02-23T06:05:52;7.55;;;1.80;;
67902;SDS011;54708;43.612;1.568;2024-02-23T06:08:19;5.60;;;2.00;;
67902;SDS011;54708;43.612;1.568;2024-02-23T06:10:44;2.53;;;1.60;;
67902;SDS011;54708;43.612;1.568;2024-02-23T06:13:10;5.57;;;1.15;;
67902;SDS011;54708;43.612;1.568;2024-02-23T06:15:35;3.17;;;1.27;;
67902;SDS011;54708;43.612;1.568;2024-02-23T06:18:01;3.67;;;1.20;;
67902;SDS011;54708;43.612;1.568;2024-02-23T06:20:26;5.97;;;1.25;;
67902;SDS011;54708;43.612;1.568;2024-02-23T06:22:51;3.45;;;1.20;;
67902;SDS011;54708;43.612;1.568;2024-02-23T06:25:17;3.65;;;1.30;;
67902;SDS011;54708;43.612;1.568;2024-02-23T06:27:42;4.20;;;1.38;;
67902;SDS011;54708;43.612;1.568;2024-02-23T06:30:08;4.15;;;2.25;;
67902;SDS011;54708;43.612;1.568;2024-02-23T06:32:33;6.97;;;1.80;;
67902;SDS011;54708;43.612;1.568;2024-02-23T06:34:59;1.95;;;1.80;;
67902;SDS011;54708;43.612;1.568;2024-02-23T06:37:24;2.88;;;1.40;;
67902;SDS011;54708;43.612;1.568;2024-02-23T06:39:50;2.47;;;1.90;;
67902;SDS011;54708;43.612;1.568;2024-02-23T06:42:19;3.50;;;0.90;;
67902;SDS011;54708;43.612;1.568;2024-02-23T06:44:45;3.20;;;1.13;;
67902;SDS011;54708;43.612;1.568;2024-02-23T06:47:11;4.57;;;1.20;;
67902;SDS011;54708;43.612;1.568;2024-02-23T06:49:37;2.90;;;1.23;;
67902;SDS011;54708;43.612;1.568;2024-02-23T06:52:02;1.10;;;0.93;;
67902;SDS011;54708;43.612;1.568;2024-02-23T06:54:28;3.28;;;1.10;;
67902;SDS011;54708;43.612;1.568;2024-02-23T06:56:53;2.83;;;1.05;;
67902;SDS011;54708;43.612;1.568;2024-02-23T06:59:19;2.55;;;1.30;;
67902;SDS011;54708;43.612;1.568;2024-02-23T07:01:51;4.18;;;1.42;;
67902;SDS011;54708;43.612;1.568;2024-02-23T07:04:17;4.95;;;1.30;;
67902;SDS011;54708;43.612;1.568;2024-02-23T07:06:42;4.88;;;1.63;;
67902;SDS011;54708;43.612;1.568;2024-02-23T07:09:08;3.95;;;0.77;;
67902;SDS011;54708;43.612;1.568;2024-02-23T07:11:34;5.03;;;1.77;;
67902;SDS011;54708;43.612;1.568;2024-02-23T07:13:59;3.33;;;1.30;;
67902;SDS011;54708;43.612;1.568;2024-02-23T07:16:25;2.88;;;0.90;;
67902;SDS011;54708;43.612;1.568;2024-02-23T07:18:50;2.97;;;1.48;;
67902;SDS011;54708;43.612;1.568;2024-02-23T07:21:18;3.35;;;1.50;;
67902;SDS011;54708;43.612;1.568;2024-02-23T07:23:44;4.75;;;1.20;;
67902;SDS011;54708;43.612;1.568;2024-02-23T07:26:09;4.97;;;1.88;;
67902;SDS011;54708;43.612;1.568;2024-02-23T07:28:34;2.88;;;1.05;;
67902;SDS011;54708;43.612;1.568;2024-02-23T07:31:00;3.20;;;1.67;;
67902;SDS011;54708;43.612;1.568;2024-02-23T07:33:25;1.60;;;0.90;;
67902;SDS011;54708;43.612;1.568;2024-02-23T07:35:50;2.35;;;1.58;;
67902;SDS011;54708;43.612;1.568;2024-02-23T07:38:16;3.95;;;1.48;;
67902;SDS011;54708;43.612;1.568;2024-02-23T07:40:43;2.88;;;1.83;;
67902;SDS011;54708;43.612;1.568;2024-02-23T07:43:09;2.38;;;1.92;;
67902;SDS011;54708;43.612;1.568;2024-02-23T07:45:36;1.73;;;1.23;;
67902;SDS011;54708;43.612;1.568;2024-02-23T07:48:01;3.40;;;1.40;;
67902;SDS011;54708;43.612;1.568;2024-02-23T07:50:27;2.60;;;0.95;;
67902;SDS011;54708;43.612;1.568;2024-02-23T07:52:52;1.70;;;1.45;;
67902;SDS011;54708;43.612;1.568;2024-02-23T07:55:18;1.08;;;0.68;;
67902;SDS011;54708;43.612;1.568;2024-02-23T07:57:43;2.13;;;1.08;;
67902;SDS011;54708;43.612;1.568;2024-02-23T08:00:08;1.00;;;0.80;;
67902;SDS011;54708;43.612;1.568;2024-02-23T08:02:34;4.70;;;2.05;;
67902;SDS011;54708;43.612;1.568;2024-02-23T08:05:00;2.65;;;0.95;;
67902;SDS011;54708;43.612;1.568;2024-02-23T08:07:26;0.95;;;0.95;;
67902;SDS011;54708;43.612;1.568;2024-02-23T08:09:53;1.33;;;0.93;;
67902;SDS011;54708;43.612;1.568;2024-02-23T08:12:18;2.55;;;1.13;;
67902;SDS011;54708;43.612;1.568;2024-02-23T08:14:44;1.35;;;1.00;;
67902;SDS011;54708;43.612;1.568;2024-02-23T08:17:10;1.98;;;1.30;;
67902;SDS011;54708;43.612;1.568;2024-02-23T08:19:36;5.57;;;1.13;;
67902;SDS011;54708;43.612;1.568;2024-02-23T08:22:01;2.22;;;1.10;;
67902;SDS011;54708;43.612;1.568;2024-02-23T08:24:26;2.47;;;1.08;;
67902;SDS011;54708;43.612;1.568;2024-02-23T08:26:52;1.52;;;0.88;;
67902;SDS011;54708;43.612;1.568;2024-02-23T08:29:18;2.83;;;1.02;;
67902;SDS011;54708;43.612;1.568;2024-02-23T08:31:44;1.83;;;0.85;;
67902;SDS011;54708;43.612;1.568;2024-02-23T08:34:09;4.35;;;1.10;;
67902;SDS011;54708;43.612;1.568;2024-02-23T08:36:34;3.08;;;1.20;;
67902;SDS011;54708;43.612;1.568;2024-02-23T08:39:00;2.05;;;1.10;;
67902;SDS011;54708;43.612;1.568;2024-02-23T08:41:25;4.80;;;1.52;;
67902;SDS011;54708;43.612;1.568;2024-02-23T08:43:50;2.78;;;1.27;;
67902;SDS011;54708;43.612;1.568;2024-02-23T08:46:16;2.78;;;1.30;;
67902;SDS011;54708;43.612;1.568;2024-02-23T08:48:41;2.25;;;1.17;;
67902;SDS011;54708;43.612;1.568;2024-02-23T08:51:07;4.35;;;1.50;;
67902;SDS011;54708;43.612;1.568;2024-02-23T08:53:32;3.88;;;1.33;;
67902;SDS011;54708;43.612;1.568;2024-02-23T08:55:57;3.78;;;1.35;;
67902;SDS011;54708;43.612;1.568;2024-02-23T08:58:23;5.63;;;1.75;;
67902;SDS011;54708;43.612;1.568;2024-02-23T09:00:48;2.78;;;1.58;;
67902;SDS011;54708;43.612;1.568;2024-02-23T09:03:14;3.50;;;1.48;;
67902;SDS011;54708;43.612;1.568;2024-02-23T09:05:39;4.65;;;1.67;;
67902;SDS011;54708;43.612;1.568;2024-02-23T09:08:06;3.45;;;1.17;;
67902;SDS011;54708;43.612;1.568;2024-02-23T09:10:31;3.03;;;1.38;;
67902;SDS011;54708;43.612;1.568;2024-02-23T09:12:57;7.50;;;1.77;;
67902;SDS011;54708;43.612;1.568;2024-02-23T09:15:22;3.28;;;1.63;;
67902;SDS011;54708;43.612;1.568;2024-02-23T09:17:47;2.10;;;1.35;;
67902;SDS011;54708;43.612;1.568;2024-02-23T09:20:13;4.13;;;2.22;;
67902;SDS011;54708;43.612;1.568;2024-02-23T09:22:38;5.78;;;2.80;;
67902;SDS011;54708;43.612;1.568;2024-02-23T09:25:05;4.80;;;1.95;;
67902;SDS011;54708;43.612;1.568;2024-02-23T09:27:31;3.83;;;2.53;;
67902;SDS011;54708;43.612;1.568;2024-02-23T09:29:57;2.20;;;0.95;;
67902;SDS011;54708;43.612;1.568;2024-02-23T09:32:23;4.10;;;1.25;;
67902;SDS011;54708;43.612;1.568;2024-02-23T09:34:49;2.97;;;2.28;;
67902;SDS011;54708;43.612;1.568;2024-02-23T09:37:14;5.22;;;1.77;;
67902;SDS011;54708;43.612;1.568;2024-02-23T09:39:39;0.85;;;0.85;;
67902;SDS011;54708;43.612;1.568;2024-02-23T09:42:06;3.40;;;1.30;;
67902;SDS011;54708;43.612;1.568;2024-02-23T09:44:34;2.60;;;1.23;;
67902;SDS011;54708;43.612;1.568;2024-02-23T09:47:03;3.22;;;1.52;;
67902;SDS011;54708;43.612;1.568;2024-02-23T09:49:39;1.70;;;1.60;;
67902;SDS011;54708;43.612;1.568;2024-02-23T09:52:08;1.33;;;0.90;;
67902;SDS011;54708;43.612;1.568;2024-02-23T09:54:34;1.55;;;0.88;;
67902;SDS011;54708;43.612;1.568;2024-02-23T09:57:09;3.40;;;1.30;;
67902;SDS011;54708;43.612;1.568;2024-02-23T09:59:35;3.70;;;1.05;;
67902;SDS011;54708;43.612;1.568;2024-02-23T10:02:06;1.55;;;1.10;;
67902;SDS011;54708;43.612;1.568;2024-02-23T10:04:34;3.67;;;1.65;;
67902;SDS011;54708;43.612;1.568;2024-02-23T10:06:59;2.25;;;1.13;;
67902;SDS011;54708;43.612;1.568;2024-02-23T10:09:25;5.45;;;1.20;;
67902;SDS011;54708;43.612;1.568;2024-02-23T10:11:53;2.33;;;0.95;;
67902;SDS011;54708;43.612;1.568;2024-02-23T10:14:19;1.95;;;1.10;;
67902;SDS011;54708;43.612;1.568;2024-02-23T10:16:46;2.15;;;1.10;;
67902;SDS011;54708;43.612;1.568;2024-02-23T10:19:11;2.95;;;0.98;;
67902;SDS011;54708;43.612;1.568;2024-02-23T10:21:37;2.42;;;1.13;;
67902;SDS011;54708;43.612;1.568;2024-02-23T10:24:02;1.67;;;0.98;;
67902;SDS011;54708;43.612;1.568;2024-02-23T10:26:27;1.83;;;1.30;;
67902;SDS011;54708;43.612;1.568;2024-02-23T10:28:53;2.38;;;1.13;;
67902;SDS011;54708;43.612;1.568;2024-02-23T10:31:18;4.00;;;1.95;;
67902;SDS011;54708;43.612;1.568;2024-02-23T10:33:47;2.20;;;1.30;;
67902;SDS011;54708;43.612;1.568;2024-02-23T10:36:14;2.67;;;1.02;;
67902;SDS011;54708;43.612;1.568;2024-02-23T10:38:41;2.65;;;1.45;;
67902;SDS011;54708;43.612;1.568;2024-02-23T10:41:10;1.90;;;1.33;;
67902;SDS011;54708;43.612;1.568;2024-02-23T10:43:44;1.77;;;1.00;;
67902;SDS011;54708;43.612;1.568;2024-02-23T10:46:09;2.78;;;1.27;;
67902;SDS011;54708;43.612;1.568;2024-02-23T10:48:38;3.13;;;1.23;;
67902;SDS011;54708;43.612;1.568;2024-02-23T10:51:05;0.98;;;0.70;;
67902;SDS011;54708;43.612;1.568;2024-02-23T10:53:32;2.15;;;1.25;;
67902;SDS011;54708;43.612;1.568;2024-02-23T10:55:57;2.15;;;0.93;;
67902;SDS011;54708;43.612;1.568;2024-02-23T10:58:23;2.15;;;1.10;;
67902;SDS011;54708;43.612;1.568;2024-02-23T11:00:49;1.45;;;1.17;;
67902;SDS011;54708;43.612;1.568;2024-02-23T11:03:14;2.63;;;1.10;;
67902;SDS011;54708;43.612;1.568;2024-02-23T11:05:40;0.95;;;0.95;;
67902;SDS011;54708;43.612;1.568;2024-02-23T11:08:05;1.33;;;1.13;;
67902;SDS011;54708;43.612;1.568;2024-02-23T11:10:31;1.58;;;0.90;;
67902;SDS011;54708;43.612;1.568;2024-02-23T11:13:00;4.57;;;0.98;;
67902;SDS011;54708;43.612;1.568;2024-02-23T11:15:26;2.55;;;1.30;;
67902;SDS011;54708;43.612;1.568;2024-02-23T11:17:52;1.98;;;0.80;;
67902;SDS011;54708;43.612;1.568;2024-02-23T11:20:17;2.13;;;1.92;;
67902;SDS011;54708;43.612;1.568;2024-02-23T11:22:43;3.58;;;1.25;;
67902;SDS011;54708;43.612;1.568;2024-02-23T11:25:08;3.60;;;1.08;;
67902;SDS011;54708;43.612;1.568;2024-02-23T11:27:35;0.80;;;0.80;;
67902;SDS011;54708;43.612;1.568;2024-02-23T11:30:04;2.45;;;1.60;;
67902;SDS011;54708;43.612;1.568;2024-02-23T11:32:41;1.88;;;1.40;;
67902;SDS011;54708;43.612;1.568;2024-02-23T11:35:08;3.80;;;1.52;;
67902;SDS011;54708;43.612;1.568;2024-02-23T11:37:49;3.78;;;1.25;;
67902;SDS011;54708;43.612;1.568;2024-02-23T11:40:23;2.10;;;1.15;;
67902;SDS011;54708;43.612;1.568;2024-02-23T11:42:52;1.50;;;1.15;;
67902;SDS011;54708;43.612;1.568;2024-02-23T11:45:19;1.50;;;1.00;;
67902;SDS011;54708;43.612;1.568;2024-02-23T11:47:45;1.27;;;0.88;;
67902;SDS011;54708;43.612;1.568;2024-02-23T11:50:10;4.80;;;1.10;;
67902;SDS011;54708;43.612;1.568;2024-02-23T11:52:37;1.52;;;1.13;;
67902;SDS011;54708;43.612;1.568;2024-02-23T11:55:03;4.38;;;1.77;;
67902;SDS011;54708;43.612;1.568;2024-02-23T11:57:30;2.33;;;1.40;;
67902;SDS011;54708;43.612;1.568;2024-02-23T11:59:56;4.75;;;1.20;;
67902;SDS011;54708;43.612;1.568;2024-02-23T12:02:21;1.52;;;1.10;;
67902;SDS011;54708;43.612;1.568;2024-02-23T12:04:49;2.55;;;1.10;;
67902;SDS011;54708;43.612;1.568;2024-02-23T12:07:14;2.58;;;1.27;;
67902;SDS011;54708;43.612;1.568;2024-02-23T12:09:40;2.20;;;1.30;;
67902;SDS011;54708;43.612;1.568;2024-02-23T12:12:06;4.90;;;1.35;;
67902;SDS011;54708;43.612;1.568;2024-02-23T12:14:32;3.25;;;1.00;;
67902;SDS011;54708;43.612;1.568;2024-02-23T12:17:01;1.38;;;1.00;;
67902;SDS011;54708;43.612;1.568;2024-02-23T12:19:29;2.00;;;1.70;;
67902;SDS011;54708;43.612;1.568;2024-02-23T12:21:54;2.75;;;1.77;;
67902;SDS011;54708;43.612;1.568;2024-02-23T12:24:25;3.72;;;1.10;;
67902;SDS011;54708;43.612;1.568;2024-02-23T12:26:53;1.98;;;1.30;;
67902;SDS011;54708;43.612;1.568;2024-02-23T12:29:19;3.30;;;1.75;;
67902;SDS011;54708;43.612;1.568;2024-02-23T12:31:45;1.92;;;1.20;;
67902;SDS011;54708;43.612;1.568;2024-02-23T12:34:11;2.63;;;1.20;;
67902;SDS011;54708;43.612;1.568;2024-02-23T12:36:37;2.00;;;1.05;;
67902;SDS011;54708;43.612;1.568;2024-02-23T12:39:04;3.38;;;1.60;;
67902;SDS011;54708;43.612;1.568;2024-02-23T12:41:29;1.20;;;0.90;;
67902;SDS011;54708;43.612;1.568;2024-02-23T12:43:54;1.17;;;0.88;;
67902;SDS011;54708;43.612;1.568;2024-02-23T12:46:20;0.82;;;0.60;;
67902;SDS011;54708;43.612;1.568;2024-02-23T12:48:45;2.10;;;1.20;;
67902;SDS011;54708;43.612;1.568;2024-02-23T12:51:11;1.33;;;0.70;;
67902;SDS011;54708;43.612;1.568;2024-02-23T12:53:38;1.02;;;0.90;;
67902;SDS011;54708;43.612;1.568;2024-02-23T12:56:05;2.60;;;1.45;;
67902;SDS011;54708;43.612;1.568;2024-02-23T12:58:32;0.70;;;0.70;;
67902;SDS011;54708;43.612;1.568;2024-02-23T13:00:58;0.70;;;0.70;;
67902;SDS011;54708;43.612;1.568;2024-02-23T13:03:24;1.25;;;0.73;;
67902;SDS011;54708;43.612;1.568;2024-02-23T13:05:51;2.13;;;1.08;;
67902;SDS011;54708;43.612;1.568;2024-02-23T13:08:17;3.25;;;0.93;;
67902;SDS011;54708;43.612;1.568;2024-02-23T13:10:43;2.75;;;1.17;;
67902;SDS011;54708;43.612;1.568;2024-02-23T13:13:08;0.88;;;0.80;;
67902;SDS011;54708;43.612;1.568;2024-02-23T13:15:34;2.72;;;0.90;;
67902;SDS011;54708;43.612;1.568;2024-02-23T13:18:01;1.48;;;0.90;;
67902;SDS011;54708;43.612;1.568;2024-02-23T13:20:27;14.52;;;6.50;;
67902;SDS011;54708;43.612;1.568;2024-02-23T13:22:53;27.00;;;13.90;;
67902;SDS011;54708;43.612;1.568;2024-02-23T13:25:18;1.63;;;1.10;;
67902;SDS011;54708;43.612;1.568;2024-02-23T13:27:43;1.52;;;0.80;;
67902;SDS011;54708;43.612;1.568;2024-02-23T13:30:09;0.85;;;0.80;;
67902;SDS011;54708;43.612;1.568;2024-02-23T13:32:34;4.60;;;1.15;;
67902;SDS011;54708;43.612;1.568;2024-02-23T13:35:00;3.03;;;1.20;;
67902;SDS011;54708;43.612;1.568;2024-02-23T13:37:29;3.08;;;0.90;;
67902;SDS011;54708;43.612;1.568;2024-02-23T13:39:54;1.80;;;1.08;;
67902;SDS011;54708;43.612;1.568;2024-02-23T13:42:20;1.73;;;0.90;;
67902;SDS011;54708;43.612;1.568;2024-02-23T13:44:45;3.83;;;0.80;;
67902;SDS011;54708;43.612;1.568;2024-02-23T13:47:12;2.13;;;1.00;;
67902;SDS011;54708;43.612;1.568;2024-02-23T13:49:37;1.70;;;1.10;;
67902;SDS011;54708;43.612;1.568;2024-02-23T13:52:02;1.40;;;1.10;;
67902;SDS011;54708;43.612;1.568;2024-02-23T13:54:28;5.85;;;2.63;;
67902;SDS011;54708;43.612;1.568;2024-02-23T13:56:53;1.08;;;0.95;;
67902;SDS011;54708;43.612;1.568;2024-02-23T13:59:18;2.22;;;1.10;;
67902;SDS011;54708;43.612;1.568;2024-02-23T14:01:44;1.08;;;0.98;;
67902;SDS011;54708;43.612;1.568;2024-02-23T14:04:10;4.35;;;1.10;;
67902;SDS011;54708;43.612;1.568;2024-02-23T14:06:35;3.85;;;2.00;;
67902;SDS011;54708;43.612;1.568;2024-02-23T14:09:01;2.20;;;1.02;;
67902;SDS011;54708;43.612;1.568;2024-02-23T14:11:28;0.80;;;0.80;;
67902;SDS011;54708;43.612;1.568;2024-02-23T14:13:54;3.03;;;0.93;;
67902;SDS011;54708;43.612;1.568;2024-02-23T14:16:19;2.05;;;1.10;;
67902;SDS011;54708;43.612;1.568;2024-02-23T14:18:44;4.00;;;2.20;;
67902;SDS011;54708;43.612;1.568;2024-02-23T14:21:10;3.13;;;1.90;;
67902;SDS011;54708;43.612;1.568;2024-02-23T14:23:36;2.65;;;1.90;;
67902;SDS011;54708;43.612;1.568;2024-02-23T14:26:02;2.47;;;1.20;;
67902;SDS011;54708;43.612;1.568;2024-02-23T14:28:28;1.92;;;1.15;;
67902;SDS011;54708;43.612;1.568;2024-02-23T14:30:54;1.85;;;1.15;;
67902;SDS011;54708;43.612;1.568;2024-02-23T14:33:19;1.65;;;0.70;;
67902;SDS011;54708;43.612;1.568;2024-02-23T14:35:45;0.93;;;0.90;;
67902;SDS011;54708;43.612;1.568;2024-02-23T14:38:11;2.88;;;1.10;;